Time;durP1;ratioP1;P1;durP2;ratioP2;P2;SDS_P1;SDS_P2;PMS_P1;PMS_P2;Temp;Humidity;BMP_temperature;BMP_pressure;BME280_temperature;BME280_humidity;BME280_pressure;Samples;Min_cycle;Max_cycle;Signal;HPM_P1;HPM_P2
2024/03/18 00:00:53;;;;;;;;;;;;;;;9.24;62.13;98140.59;5074986;28;19950;-83
2024/03/18 00:03:20;;;;;;;;;;;;;;;9.18;62.38;98132.53;5062498;28;20260;-83
2024/03/18 00:05:47;;;;;;;;;;;;;;;9.22;62.42;98138.19;5064934;28;19928;-82
2024/03/18 00:08:14;;;;;;;;;;;;;;;9.36;61.93;98136.28;5055819;28;20002;-82
2024/03/18 00:10:41;;;;;;;;;;;;;;;9.29;62.03;98149.44;5058774;28;19952;-82
2024/03/18 00:13:09;;;;;;;;;;;;;;;9.31;62.08;98141.78;5072401;28;19932;-82
2024/03/18 00:15:36;;;;;;;;;;;;;;;9.32;62.13;98142.59;5084378;28;19932;-87
2024/03/18 00:18:03;;;;;;;;;;;;;;;9.27;62.05;98131.84;5070817;28;19924;-86
2024/03/18 00:20:29;;;;;;;;;;;;;;;9.32;61.86;98137.19;5079079;28;19924;-86
2024/03/18 00:22:58;;;;;;;;;;;;;;;9.30;61.88;98128.53;5070505;28;19935;-87
2024/03/18 00:25:25;;;;;;;;;;;;;;;9.23;62.09;98131.66;5059581;28;20022;-86
2024/03/18 00:27:52;;;;;;;;;;;;;;;9.35;61.68;98123.03;5068854;28;19928;-85
2024/03/18 00:30:20;;;;;;;;;;;;;;;9.19;61.93;98123.28;5073892;28;19924;-87
2024/03/18 00:32:47;;;;;;;;;;;;;;;9.19;62.27;98122.50;5075334;28;19967;-88
2024/03/18 00:35:14;;;;;;;;;;;;;;;9.19;62.28;98122.50;5087022;28;19931;-87
2024/03/18 00:37:40;;;;;;;;;;;;;;;9.15;62.43;98119.56;5061640;28;19970;-88
2024/03/18 00:40:09;;;;;;;;;;;;;;;9.11;62.61;98115.06;5080353;28;19940;-87
2024/03/18 00:42:36;;;;;;;;;;;;;;;9.21;62.13;98108.63;5067478;28;19924;-86
2024/03/18 00:45:04;;;;;;;;;;;;;;;9.21;62.14;98114.84;5056492;28;19932;-88
2024/03/18 00:47:33;;;;;;;;;;;;;;;9.15;62.27;98105.22;5074438;28;19931;-84
2024/03/18 00:49:59;;;;;;;;;;;;;;;9.20;61.96;98107.84;5078159;28;19950;-87
2024/03/18 00:52:26;;;;;;;;;;;;;;;9.26;61.90;98103.94;5077944;28;19939;-87
2024/03/18 00:54:53;;;;;;;;;;;;;;;9.23;61.90;98096.41;5083305;28;19968;-88
2024/03/18 00:57:22;;;;;;;;;;;;;;;9.19;62.37;98108.94;5076415;28;19946;-87
2024/03/18 00:59:49;;;;;;;;;;;;;;;9.13;62.28;98100.09;5079626;28;19924;-88
2024/03/18 01:02:16;;;;;;;;;;;;;;;9.21;62.18;98101.31;5072081;28;19955;-88
2024/03/18 01:04:44;;;;;;;;;;;;;;;9.18;61.95;98091.06;5091213;28;19935;-88
2024/03/18 01:07:11;;;;;;;;;;;;;;;9.20;62.29;98086.16;5085206;28;19932;-87
2024/03/18 01:09:40;;;;;;;;;;;;;;;9.04;62.53;98088.31;5077687;28;19929;-87
2024/03/18 01:12:07;;;;;;;;;;;;;;;9.07;62.62;98087.72;5077453;28;19912;-86
2024/03/18 01:14:34;;;;;;;;;;;;;;;9.14;62.45;98084.63;5073914;28;19924;-88
2024/03/18 01:17:00;;;;;;;;;;;;;;;9.16;61.93;98083.25;5087073;28;19935;-86
2024/03/18 01:19:55;;;;;;;;;;;;;;;9.12;62.46;98082.22;5068757;28;19924;-85
2024/03/18 01:22:24;;;;;;;;;;;;;;;9.18;62.13;98067.47;5074884;28;20034;-88
2024/03/18 01:24:51;;;;;;;;;;;;;;;9.09;62.02;98071.16;5069459;28;20394;-84
2024/03/18 01:27:18;;;;;;;;;;;;;;;9.08;62.54;98064.13;5072525;28;20665;-88
2024/03/18 01:29:48;;;;;;;;;;;;;;;9.03;62.31;98065.03;5078033;28;19923;-88
2024/03/18 01:32:15;;;;;;;;;;;;;;;9.01;62.61;98067.25;5091009;28;19996;-88
2024/03/18 01:34:41;;;;;;;;;;;;;;;8.96;62.71;98056.50;5056247;28;19924;-88
2024/03/18 01:37:08;;;;;;;;;;;;;;;8.95;62.81;98051.34;5055998;28;19927;-89
2024/03/18 01:39:36;;;;;;;;;;;;;;;8.99;62.58;98053.16;5058994;28;19924;-89
2024/03/18 01:42:03;;;;;;;;;;;;;;;8.80;63.04;98053.22;5057469;28;19981;-89
2024/03/18 01:44:30;;;;;;;;;;;;;;;8.79;63.25;98048.09;5061073;28;19934;-89
2024/03/18 01:46:57;;;;;;;;;;;;;;;8.81;63.39;98052.13;5080318;28;19928;-88
2024/03/18 01:49:24;;;;;;;;;;;;;;;8.77;63.43;98051.09;5066393;28;19969;-88
2024/03/18 01:51:50;;;;;;;;;;;;;;;8.83;63.06;98043.69;5048736;28;19924;-88
2024/03/18 01:54:17;;;;;;;;;;;;;;;8.79;63.15;98043.50;5068267;28;19924;-88
2024/03/18 01:56:46;;;;;;;;;;;;;;;8.76;63.32;98038.66;5084350;28;19942;-89
2024/03/18 01:59:13;;;;;;;;;;;;;;;8.78;63.41;98039.16;5095106;28;20011;-89
2024/03/18 02:01:40;;;;;;;;;;;;;;;8.76;63.39;98033.25;5080813;28;19916;-89
2024/03/18 02:04:09;;;;;;;;;;;;;;;8.79;63.26;98031.84;5086584;28;20434;-89
2024/03/18 02:06:37;;;;;;;;;;;;;;;8.80;62.93;98036.19;5084989;28;19924;-88
2024/03/18 02:09:04;;;;;;;;;;;;;;;8.75;63.10;98031.63;5088839;28;19909;-89
2024/03/18 02:11:31;;;;;;;;;;;;;;;8.75;63.19;98028.94;5078556;28;19987;-88
2024/03/18 02:13:59;;;;;;;;;;;;;;;8.79;62.86;98038.09;5091553;28;19950;-88
2024/03/18 02:16:28;;;;;;;;;;;;;;;8.68;63.29;98035.81;5070706;28;19928;-88
2024/03/18 02:18:54;;;;;;;;;;;;;;;8.66;63.38;98039.63;5098897;28;19924;-88
2024/03/18 02:21:22;;;;;;;;;;;;;;;8.70;62.86;98031.72;5103123;28;19924;-89
2024/03/18 02:23:50;;;;;;;;;;;;;;;8.54;63.28;98019.53;5073474;28;19924;-90
2024/03/18 02:26:17;;;;;;;;;;;;;;;8.65;63.40;98023.69;5080187;28;19924;-90
2024/03/18 02:28:44;;;;;;;;;;;;;;;8.61;63.22;98022.66;5060633;28;19954;-88
2024/03/18 02:31:11;;;;;;;;;;;;;;;8.69;63.20;98022.00;5078777;28;19938;-89
2024/03/18 02:33:37;;;;;;;;;;;;;;;8.70;62.99;98018.19;5068425;28;19981;-90
2024/03/18 02:36:05;;;;;;;;;;;;;;;8.46;63.52;98015.56;5061851;28;19935;-88
2024/03/18 02:38:32;;;;;;;;;;;;;;;8.40;63.90;98003.22;5061551;28;19924;-88
2024/03/18 02:41:00;;;;;;;;;;;;;;;8.45;63.79;98010.47;5068542;28;19989;-88
2024/03/18 02:43:27;;;;;;;;;;;;;;;8.34;63.92;98016.00;5064193;28;19923;-86
2024/03/18 02:45:54;;;;;;;;;;;;;;;8.29;64.32;98007.16;5083983;28;19912;-86
2024/03/18 02:48:20;;;;;;;;;;;;;;;8.32;64.03;98003.88;5087568;28;19968;-85
2024/03/18 02:50:47;;;;;;;;;;;;;;;8.36;64.11;97997.59;5071893;28;19932;-85
2024/03/18 02:53:14;;;;;;;;;;;;;;;8.37;63.63;97993.00;5070581;28;19971;-86
2024/03/18 02:55:41;;;;;;;;;;;;;;;8.32;63.94;97987.63;5077643;28;19965;-84
2024/03/18 02:58:09;;;;;;;;;;;;;;;8.32;64.03;97991.13;5081242;28;19924;-85
2024/03/18 03:00:35;;;;;;;;;;;;;;;8.29;64.16;97991.72;5059539;28;19936;-85
2024/03/18 03:03:02;;;;;;;;;;;;;;;8.28;64.21;97998.22;5050104;28;19931;-86
2024/03/18 03:05:30;;;;;;;;;;;;;;;8.19;64.45;97991.06;5072337;28;19932;-86
2024/03/18 03:07:57;;;;;;;;;;;;;;;8.28;64.33;97987.41;5081486;28;19961;-86
2024/03/18 03:10:24;;;;;;;;;;;;;;;8.35;64.03;97985.13;5068853;28;19950;-87
2024/03/18 03:12:51;;;;;;;;;;;;;;;8.25;64.41;97979.84;5087804;28;19923;-87
2024/03/18 03:15:20;;;;;;;;;;;;;;;8.26;64.25;97976.06;5064351;28;19924;-87
2024/03/18 03:17:47;;;;;;;;;;;;;;;8.30;64.43;97971.66;5077280;28;19928;-87
2024/03/18 03:20:19;;;;;;;;;;;;;;;8.20;64.39;97977.22;5061090;28;19931;-87
2024/03/18 03:22:45;;;;;;;;;;;;;;;8.31;64.11;97977.88;5083648;28;19931;-87
2024/03/18 03:25:13;;;;;;;;;;;;;;;8.31;63.83;97978.69;5052518;28;19939;-87
2024/03/18 03:27:40;;;;;;;;;;;;;;;8.40;63.82;97976.94;5075477;28;19928;-88
2024/03/18 03:30:08;;;;;;;;;;;;;;;8.19;64.52;97972.13;5077749;28;19924;-87
2024/03/18 03:32:38;;;;;;;;;;;;;;;8.20;64.44;97968.31;5057162;28;20330;-88
2024/03/18 03:35:05;;;;;;;;;;;;;;;8.12;64.76;97972.50;5060754;28;19924;-87
2024/03/18 03:37:31;;;;;;;;;;;;;;;8.21;64.67;97964.53;5067330;28;19939;-86
2024/03/18 03:39:58;;;;;;;;;;;;;;;8.19;64.58;97962.09;5070905;28;19931;-87
2024/03/18 03:42:27;;;;;;;;;;;;;;;8.06;64.94;97965.56;5070477;28;20010;-87
2024/03/18 03:44:53;;;;;;;;;;;;;;;8.07;65.00;97957.13;5058406;28;19928;-76
2024/03/18 03:47:20;;;;;;;;;;;;;;;8.21;64.42;97959.13;5063697;28;19935;-83
2024/03/18 03:49:48;;;;;;;;;;;;;;;8.11;64.65;97962.78;5057127;28;19939;-83
2024/03/18 03:52:15;;;;;;;;;;;;;;;8.06;64.69;97955.53;5071388;28;19931;-87
2024/03/18 03:54:43;;;;;;;;;;;;;;;7.96;65.03;97954.88;5055298;28;19951;-83
2024/03/18 03:57:12;;;;;;;;;;;;;;;7.99;65.10;97954.28;5082023;28;19928;-83
2024/03/18 03:59:38;;;;;;;;;;;;;;;7.97;65.18;97961.88;5064760;28;19924;-82
2024/03/18 04:02:05;;;;;;;;;;;;;;;7.90;65.41;97956.84;5072613;28;19945;-81
2024/03/18 04:04:35;;;;;;;;;;;;;;;8.01;65.05;97949.41;5072883;28;19928;-82
2024/03/18 04:07:03;;;;;;;;;;;;;;;7.84;65.56;97945.31;5063901;28;20453;-82
2024/03/18 04:09:28;;;;;;;;;;;;;;;7.95;65.13;97947.88;5064441;28;19932;-82
2024/03/18 04:11:55;;;;;;;;;;;;;;;7.87;65.42;97942.00;5052664;28;19964;-83
2024/03/18 04:14:22;;;;;;;;;;;;;;;7.90;65.41;97934.41;5079919;28;19934;-83
2024/03/18 04:16:49;;;;;;;;;;;;;;;7.91;65.16;97927.91;5061179;28;19935;-83
2024/03/18 04:19:15;;;;;;;;;;;;;;;7.90;64.97;97926.28;5054131;28;19930;-82
2024/03/18 04:21:42;;;;;;;;;;;;;;;7.93;65.06;97923.00;5053676;28;19928;-82
2024/03/18 04:24:10;;;;;;;;;;;;;;;7.86;65.19;97924.16;5062384;28;19931;-83
2024/03/18 04:26:37;;;;;;;;;;;;;;;7.81;65.57;97929.66;5049849;28;19928;-82
2024/03/18 04:29:05;;;;;;;;;;;;;;;7.83;65.25;97935.59;5053845;28;19967;-84
2024/03/18 04:31:32;;;;;;;;;;;;;;;7.82;65.42;97935.84;5060358;28;19923;-83
2024/03/18 04:34:00;;;;;;;;;;;;;;;7.82;65.32;97935.84;5073144;28;19935;-83
2024/03/18 04:36:27;;;;;;;;;;;;;;;7.79;65.30;97933.75;5072850;28;19947;-80
2024/03/18 04:38:53;;;;;;;;;;;;;;;7.78;65.54;97938.38;5066843;28;19931;-82
2024/03/18 04:41:22;;;;;;;;;;;;;;;7.73;65.79;97930.31;5067947;28;19933;-79
2024/03/18 04:43:49;;;;;;;;;;;;;;;7.74;65.57;97942.75;5069436;28;20291;-80
2024/03/18 04:46:16;;;;;;;;;;;;;;;7.72;65.77;97936.00;5059205;28;19943;-79
2024/03/18 04:48:43;;;;;;;;;;;;;;;7.68;65.68;97938.50;5071188;28;20387;-80
2024/03/18 04:51:09;;;;;;;;;;;;;;;7.57;66.12;97937.03;5045399;28;19925;-80
2024/03/18 04:53:36;;;;;;;;;;;;;;;7.55;66.23;97931.09;5047039;28;19969;-82
2024/03/18 04:56:03;;;;;;;;;;;;;;;7.59;66.11;97930.22;5049184;28;19924;-82
2024/03/18 04:58:32;;;;;;;;;;;;;;;7.56;66.48;97935.41;5062921;28;19935;-81
2024/03/18 05:00:59;;;;;;;;;;;;;;;7.64;65.98;97933.97;5071141;28;19932;-81
2024/03/18 05:03:25;;;;;;;;;;;;;;;7.66;65.97;97946.09;5049870;28;19982;-80
2024/03/18 05:05:53;;;;;;;;;;;;;;;7.71;65.67;97932.50;5052820;28;19993;-81
2024/03/18 05:08:20;;;;;;;;;;;;;;;7.64;66.03;97937.47;5061878;28;19994;-82
2024/03/18 05:10:47;;;;;;;;;;;;;;;7.70;66.08;97947.13;5066067;28;19931;-82
2024/03/18 05:13:15;;;;;;;;;;;;;;;7.83;65.38;97937.50;5059946;28;19931;-83
2024/03/18 05:15:43;;;;;;;;;;;;;;;7.66;65.93;97934.47;5079718;28;19935;-81
2024/03/18 05:18:10;;;;;;;;;;;;;;;7.75;65.70;97941.63;5046754;28;20326;-80
2024/03/18 05:21:08;;;;;;;;;;;;;;;7.79;65.43;97934.56;5052925;28;20025;-79
2024/03/18 05:23:35;;;;;;;;;;;;;;;8.00;65.09;97931.56;5069248;28;19924;-79
2024/03/18 05:26:02;;;;;;;;;;;;;;;8.01;64.79;97925.03;5056394;28;19936;-80
2024/03/18 05:28:28;;;;;;;;;;;;;;;8.06;64.96;97924.97;5050370;28;19932;-79
2024/03/18 05:30:57;;;;;;;;;;;;;;;8.24;63.93;97920.63;5056827;28;19924;-81
2024/03/18 05:33:24;;;;;;;;;;;;;;;8.00;64.59;97928.84;5057605;28;19935;-78
2024/03/18 05:35:51;;;;;;;;;;;;;;;8.14;64.43;97919.66;5057687;28;19932;-84
2024/03/18 05:38:18;;;;;;;;;;;;;;;8.08;64.57;97914.63;5042432;28;19931;-85
2024/03/18 05:40:44;;;;;;;;;;;;;;;8.23;64.07;97910.91;5070070;28;19924;-85
2024/03/18 05:43:11;;;;;;;;;;;;;;;8.20;63.96;97909.56;5070440;28;19928;-86
2024/03/18 05:45:38;;;;;;;;;;;;;;;8.42;63.57;97921.72;5063131;28;19928;-81
2024/03/18 05:48:07;;;;;;;;;;;;;;;8.34;63.52;97918.53;5066226;28;19931;-85
2024/03/18 05:50:34;;;;;;;;;;;;;;;8.12;64.19;97915.66;5068728;28;19924;-88
2024/03/18 05:53:01;;;;;;;;;;;;;;;8.19;64.27;97918.78;5054487;28;19929;-85
2024/03/18 05:55:28;;;;;;;;;;;;;;;8.46;63.09;97925.41;5068380;28;19928;-78
2024/03/18 05:57:57;;;;;;;;;;;;;;;8.25;63.62;97919.50;5078644;28;19931;-84
2024/03/18 06:00:24;;;;;;;;;;;;;;;8.17;64.10;97912.09;5058885;28;22008;-82
2024/03/18 06:02:51;;;;;;;;;;;;;;;8.19;64.06;97910.66;5085919;28;19949;-87
2024/03/18 06:05:24;;;;;;;;;;;;;;;8.11;64.45;97903.25;5080126;28;20019;-83
2024/03/18 06:07:51;;;;;;;;;;;;;;;8.19;64.13;97905.25;5061540;28;19928;-90
2024/03/18 06:10:18;;;;;;;;;;;;;;;8.01;64.48;97900.69;5055958;28;19928;-90
2024/03/18 06:12:45;;;;;;;;;;;;;;;8.03;64.53;97896.59;5069932;28;20411;-94
2024/03/18 06:15:13;;;;;;;;;;;;;;;8.24;64.29;97905.19;5068738;28;20007;-88
2024/03/18 06:17:39;;;;;;;;;;;;;;;8.08;64.36;97903.81;5050984;28;19931;-88
2024/03/18 06:20:07;;;;;;;;;;;;;;;8.16;64.17;97897.75;5042452;28;19925;-88
2024/03/18 06:22:37;;;;;;;;;;;;;;;8.15;64.22;97901.56;5039928;28;19970;-84
2024/03/18 06:27:50;;;;;;;;;;;;;;;8.17;64.13;97896.66;5082464;28;20363;-84
2024/03/18 06:30:17;;;;;;;;;;;;;;;8.36;63.76;97891.19;5054737;28;19924;-85
2024/03/18 06:32:44;;;;;;;;;;;;;;;8.47;63.14;97899.94;5049422;28;19946;-86
2024/03/18 06:35:11;;;;;;;;;;;;;;;8.54;63.46;97898.47;5060123;28;19928;-86
2024/03/18 06:37:39;;;;;;;;;;;;;;;8.47;63.29;97894.53;5059552;28;19970;-86
2024/03/18 06:40:06;;;;;;;;;;;;;;;8.38;63.12;97887.13;5048847;28;19924;-85
2024/03/18 06:42:34;;;;;;;;;;;;;;;8.43;63.12;97888.13;5056699;28;19931;-86
2024/03/18 06:45:00;;;;;;;;;;;;;;;8.56;62.72;97884.63;5056187;28;19925;-85
2024/03/18 06:47:32;;;;;;;;;;;;;;;8.65;62.80;97890.97;5046600;28;20476;-85
2024/03/18 06:50:00;;;;;;;;;;;;;;;8.87;62.39;97893.78;5059314;28;19931;-86
2024/03/18 06:52:27;;;;;;;;;;;;;;;8.73;62.19;97898.38;5059451;28;19928;-85
2024/03/18 06:54:56;;;;;;;;;;;;;;;8.85;62.39;97900.63;5057886;28;19924;-86
2024/03/18 06:57:24;;;;;;;;;;;;;;;8.78;62.67;97895.59;5071286;28;19928;-85
2024/03/18 06:59:54;;;;;;;;;;;;;;;8.96;61.94;97890.41;5070043;28;19925;-86
2024/03/18 07:02:21;;;;;;;;;;;;;;;8.98;62.11;97893.59;5039182;28;19931;-85
2024/03/18 07:04:47;;;;;;;;;;;;;;;8.92;62.45;97896.41;5039203;28;19924;-86
2024/03/18 07:07:15;;;;;;;;;;;;;;;9.17;61.38;97902.44;5059467;28;19960;-85
2024/03/18 07:09:48;;;;;;;;;;;;;;;9.05;61.76;97905.63;5054132;28;19954;-85
2024/03/18 07:12:16;;;;;;;;;;;;;;;9.18;61.74;97906.75;5074886;28;20321;-85
2024/03/18 07:14:43;;;;;;;;;;;;;;;9.06;61.41;97906.47;5069441;28;19925;-85
2024/03/18 07:17:10;;;;;;;;;;;;;;;9.04;61.81;97903.22;5046692;28;19928;-77
2024/03/18 07:19:36;;;;;;;;;;;;;;;9.10;61.75;97899.31;5043868;28;19977;-77
2024/03/18 07:22:03;;;;;;;;;;;;;;;9.15;61.18;97901.91;5064248;28;20316;-77
2024/03/18 07:24:34;;;;;;;;;;;;;;;9.01;61.82;97901.16;5044204;28;19928;-77
2024/03/18 07:27:02;;;;;;;;;;;;;;;9.23;61.27;97901.22;5062892;28;19930;-77
2024/03/18 07:29:30;;;;;;;;;;;;;;;9.09;60.95;97901.22;5055046;28;19924;-77
2024/03/18 07:31:57;;;;;;;;;;;;;;;9.12;61.46;97899.84;5051014;28;19935;-77
2024/03/18 07:34:24;;;;;;;;;;;;;;;9.20;61.69;97899.09;5068289;28;19924;-77
2024/03/18 07:36:51;;;;;;;;;;;;;;;9.26;60.76;97895.19;5049983;28;19931;-76
2024/03/18 07:39:17;;;;;;;;;;;;;;;9.28;60.54;97887.56;5055134;28;19974;-77
2024/03/18 07:41:44;;;;;;;;;;;;;;;9.21;60.58;97891.78;5074443;28;19930;-76
2024/03/18 07:44:11;;;;;;;;;;;;;;;9.14;60.22;97894.91;5051330;28;19977;-76
2024/03/18 07:46:39;;;;;;;;;;;;;;;9.28;60.33;97889.47;5035267;28;19929;-76
2024/03/18 07:49:06;;;;;;;;;;;;;;;9.24;60.57;97891.19;5041778;28;19928;-76
2024/03/18 07:51:33;;;;;;;;;;;;;;;9.22;60.12;97891.50;5069390;28;20039;-77
2024/03/18 07:54:00;;;;;;;;;;;;;;;9.21;60.63;97884.44;5073072;28;19934;-77
2024/03/18 07:56:27;;;;;;;;;;;;;;;9.27;60.08;97888.69;5055277;28;20275;-76
2024/03/18 07:58:54;;;;;;;;;;;;;;;9.26;60.63;97887.06;5054212;28;19991;-77
2024/03/18 08:01:20;;;;;;;;;;;;;;;9.39;60.57;97888.16;5049251;28;19931;-77
2024/03/18 08:03:48;;;;;;;;;;;;;;;9.22;60.28;97883.38;5070716;28;19934;-77
2024/03/18 08:06:18;;;;;;;;;;;;;;;9.34;60.51;97886.34;5042671;28;19924;-77
2024/03/18 08:08:45;;;;;;;;;;;;;;;9.37;60.44;97891.16;5057338;28;20391;-77
2024/03/18 08:11:12;;;;;;;;;;;;;;;9.50;60.22;97892.25;5045750;28;19927;-76
2024/03/18 08:13:39;;;;;;;;;;;;;;;9.50;59.90;97900.38;5052948;28;19932;-78
2024/03/18 08:16:06;;;;;;;;;;;;;;;9.63;59.82;97896.81;5072068;28;20006;-76
2024/03/18 08:18:33;;;;;;;;;;;;;;;9.55;59.98;97894.06;5067292;28;19924;-76
2024/03/18 08:21:01;;;;;;;;;;;;;;;9.57;59.78;97900.75;5057015;28;19928;-77
2024/03/18 08:23:28;;;;;;;;;;;;;;;9.30;60.28;97896.19;5073804;28;19931;-76
2024/03/18 08:25:54;;;;;;;;;;;;;;;9.43;60.52;97900.81;5066664;28;19924;-83
2024/03/18 08:28:21;;;;;;;;;;;;;;;9.65;60.12;97901.97;5058279;28;19924;-82
2024/03/18 08:30:48;;;;;;;;;;;;;;;9.70;60.16;97899.94;5068140;28;19924;-83
2024/03/18 08:33:15;;;;;;;;;;;;;;;9.78;59.65;97900.31;5059787;28;19924;-83
2024/03/18 08:35:42;;;;;;;;;;;;;;;9.86;59.88;97900.41;5061378;28;19929;-82
2024/03/18 08:38:11;;;;;;;;;;;;;;;9.88;59.15;97898.16;5083274;28;19924;-83
2024/03/18 08:40:39;;;;;;;;;;;;;;;9.95;59.22;97890.41;5080994;28;19924;-83
2024/03/18 08:43:06;;;;;;;;;;;;;;;10.06;58.79;97885.53;5064257;28;19928;-83
2024/03/18 08:45:32;;;;;;;;;;;;;;;10.15;58.43;97888.31;5077263;28;19931;-83
2024/03/18 08:47:59;;;;;;;;;;;;;;;10.08;59.28;97879.81;5075184;28;20287;-83
2024/03/18 08:50:26;;;;;;;;;;;;;;;10.20;59.32;97883.56;5058135;28;19928;-83
2024/03/18 08:52:52;;;;;;;;;;;;;;;10.30;58.72;97882.53;5057566;28;19924;-83
2024/03/18 08:55:21;;;;;;;;;;;;;;;10.41;58.36;97883.09;5055769;28;19924;-83
2024/03/18 08:57:47;;;;;;;;;;;;;;;10.59;58.41;97882.06;5049343;28;19923;-82
2024/03/18 09:00:18;;;;;;;;;;;;;;;10.62;57.75;97881.44;5059131;28;19931;-85
2024/03/18 09:02:46;;;;;;;;;;;;;;;10.66;57.33;97876.19;5059606;28;19963;-84
2024/03/18 09:05:12;;;;;;;;;;;;;;;10.65;57.73;97880.00;5051308;28;19924;-83
2024/03/18 09:07:39;;;;;;;;;;;;;;;10.60;58.44;97878.25;5065503;28;19982;-83
2024/03/18 09:10:09;;;;;;;;;;;;;;;10.73;58.40;97873.81;5061794;28;19935;-82
2024/03/18 09:12:39;;;;;;;;;;;;;;;10.79;57.38;97879.94;5076672;28;19968;-82
2024/03/18 09:15:06;;;;;;;;;;;;;;;10.89;57.39;97880.44;5059853;28;20375;-83
2024/03/18 09:17:33;;;;;;;;;;;;;;;10.74;57.55;97872.72;5068847;28;20024;-83
2024/03/18 09:20:01;;;;;;;;;;;;;;;10.86;57.76;97872.13;5047176;28;19973;-83
2024/03/18 09:22:27;;;;;;;;;;;;;;;10.90;57.53;97873.91;5041895;28;19951;-82
2024/03/18 09:24:54;;;;;;;;;;;;;;;11.09;57.78;97870.13;5058787;28;19932;-82
2024/03/18 09:27:22;;;;;;;;;;;;;;;11.07;57.40;97869.63;5055976;28;19977;-82
2024/03/18 09:29:50;;;;;;;;;;;;;;;11.10;57.05;97867.09;5057499;28;19928;-79
2024/03/18 09:32:16;;;;;;;;;;;;;;;11.16;57.39;97857.66;5058638;28;19924;-86
2024/03/18 09:34:43;;;;;;;;;;;;;;;11.32;56.42;97858.03;5054674;28;19937;-83
2024/03/18 09:37:11;;;;;;;;;;;;;;;11.43;56.96;97851.16;5056215;28;20406;-84
2024/03/18 09:39:38;;;;;;;;;;;;;;;11.46;56.42;97845.09;5067901;28;19950;-84
2024/03/18 09:42:06;;;;;;;;;;;;;;;11.49;56.26;97844.44;5048541;28;19935;-84
2024/03/18 09:44:35;;;;;;;;;;;;;;;11.57;56.04;97837.41;5050974;28;19963;-84
2024/03/18 09:47:03;;;;;;;;;;;;;;;11.68;55.64;97846.06;5096801;28;19973;-84
2024/03/18 09:49:30;;;;;;;;;;;;;;;11.52;55.90;97843.03;5061605;28;19924;-84
2024/03/18 09:51:57;;;;;;;;;;;;;;;11.54;56.19;97852.44;5067628;28;20410;-84
2024/03/18 09:54:26;;;;;;;;;;;;;;;11.63;56.31;97848.94;5044756;28;19931;-84
2024/03/18 09:56:56;;;;;;;;;;;;;;;11.69;55.59;97858.56;5068801;28;19935;-84
2024/03/18 09:59:25;;;;;;;;;;;;;;;11.71;55.48;97857.09;5040829;28;20401;-84
2024/03/18 10:01:52;;;;;;;;;;;;;;;11.71;55.46;97854.38;5087600;28;19950;-84
2024/03/18 10:04:21;;;;;;;;;;;;;;;11.73;55.95;97848.63;5054662;28;19970;-84
2024/03/18 10:06:48;;;;;;;;;;;;;;;11.80;55.58;97844.28;5054912;28;19932;-84
2024/03/18 10:09:16;;;;;;;;;;;;;;;11.99;55.88;97835.84;5043090;28;20075;-84
2024/03/18 10:11:44;;;;;;;;;;;;;;;12.12;55.30;97838.69;5063643;28;20025;-83
2024/03/18 10:14:11;;;;;;;;;;;;;;;12.11;54.98;97834.38;5059359;28;19935;-83
2024/03/18 10:16:38;;;;;;;;;;;;;;;12.21;54.91;97834.84;5068939;28;20296;-83
2024/03/18 10:19:06;;;;;;;;;;;;;;;12.23;54.51;97839.97;5058235;28;19924;-83
2024/03/18 10:21:35;;;;;;;;;;;;;;;12.23;54.58;97835.31;5059009;28;19928;-83
2024/03/18 10:24:01;;;;;;;;;;;;;;;12.39;54.27;97840.25;5080446;28;19992;-83
2024/03/18 10:26:28;;;;;;;;;;;;;;;12.51;54.21;97829.47;5046661;28;19932;-83
2024/03/18 10:28:56;;;;;;;;;;;;;;;12.60;53.87;97830.25;5062697;28;19927;-84
2024/03/18 10:31:22;;;;;;;;;;;;;;;12.56;53.25;97826.56;5038732;28;20009;-84
2024/03/18 10:33:50;;;;;;;;;;;;;;;12.65;53.49;97829.28;5057668;28;19974;-84
2024/03/18 10:36:18;;;;;;;;;;;;;;;12.68;53.59;97834.88;5056033;28;19928;-84
2024/03/18 10:38:46;;;;;;;;;;;;;;;12.74;53.50;97832.75;5059771;28;19925;-83
2024/03/18 10:41:16;;;;;;;;;;;;;;;12.78;53.25;97830.97;5063979;28;19970;-83
2024/03/18 10:43:43;;;;;;;;;;;;;;;12.81;53.41;97827.59;5067258;28;20761;-83
2024/03/18 10:46:11;;;;;;;;;;;;;;;12.89;53.12;97836.84;5044629;28;19994;-79
2024/03/18 10:48:39;;;;;;;;;;;;;;;12.88;53.09;97830.59;5040493;28;20464;-78
2024/03/18 10:51:08;;;;;;;;;;;;;;;12.93;53.13;97826.91;5061702;28;19947;-79
2024/03/18 10:53:34;;;;;;;;;;;;;;;12.88;53.01;97827.06;5052637;28;20287;-78
2024/03/18 10:56:02;;;;;;;;;;;;;;;12.95;52.96;97830.09;5077944;28;19931;-78
2024/03/18 10:58:30;;;;;;;;;;;;;;;12.95;53.29;97830.09;5067499;28;19924;-79
2024/03/18 11:00:58;;;;;;;;;;;;;;;12.91;53.22;97824.50;5065402;28;20007;-78
2024/03/18 11:03:30;;;;;;;;;;;;;;;12.88;53.25;97827.88;5049577;28;19936;-78
2024/03/18 11:05:59;;;;;;;;;;;;;;;12.94;53.02;97826.56;5056162;28;19955;-78
2024/03/18 11:08:26;;;;;;;;;;;;;;;12.94;53.59;97832.00;5061154;28;19950;-78
2024/03/18 11:10:54;;;;;;;;;;;;;;;13.02;53.23;97833.91;5061325;28;19923;-79
2024/03/18 11:13:32;;;;;;;;;;;;;;;13.05;53.01;97829.75;5071704;28;19927;-79
2024/03/18 11:16:03;;;;;;;;;;;;;;;13.00;52.57;97828.00;5061329;28;19939;-79
2024/03/18 11:18:30;;;;;;;;;;;;;;;12.95;53.07;97822.72;5066914;28;19924;-90
2024/03/18 11:20:59;;;;;;;;;;;;;;;12.96;53.37;97834.44;5074741;28;19924;-78
2024/03/18 11:23:26;;;;;;;;;;;;;;;12.99;53.34;97829.09;5057905;28;20574;-79
2024/03/18 11:25:52;;;;;;;;;;;;;;;13.04;53.22;97834.38;5048699;28;20644;-79
2024/03/18 11:28:33;;;;;;;;;;;;;;;13.13;52.83;97839.00;5051334;28;19998;-79
2024/03/18 11:31:00;;;;;;;;;;;;;;;13.21;52.45;97835.41;5056785;28;19931;-79
2024/03/18 11:33:27;;;;;;;;;;;;;;;13.14;52.45;97832.41;5054810;28;19933;-80
2024/03/18 11:35:54;;;;;;;;;;;;;;;13.23;52.46;97833.19;5052358;28;19928;-79
2024/03/18 11:38:21;;;;;;;;;;;;;;;13.26;52.35;97833.34;5052109;28;19982;-79
2024/03/18 11:40:47;;;;;;;;;;;;;;;13.21;52.22;97835.41;5061306;28;19924;-79
2024/03/18 11:43:14;;;;;;;;;;;;;;;13.31;52.34;97835.03;5063643;28;19925;-79
2024/03/18 11:45:43;;;;;;;;;;;;;;;13.44;52.11;97835.94;5064984;28;19928;-79
2024/03/18 11:48:11;;;;;;;;;;;;;;;13.57;52.24;97837.59;5061329;28;19932;-79
2024/03/18 11:50:39;;;;;;;;;;;;;;;13.68;51.71;97838.78;5060760;28;19924;-79
2024/03/18 11:53:07;;;;;;;;;;;;;;;13.61;51.32;97839.34;5046318;28;19928;-79
2024/03/18 11:55:34;;;;;;;;;;;;;;;13.60;51.21;97837.75;5038694;28;19981;-82
2024/03/18 11:58:01;;;;;;;;;;;;;;;13.59;51.52;97836.16;5053504;28;19963;-83
2024/03/18 12:00:28;;;;;;;;;;;;;;;13.68;51.02;97833.34;5074528;28;19997;-83
2024/03/18 12:02:56;;;;;;;;;;;;;;;13.66;51.04;97829.34;5092139;28;19931;-83
2024/03/18 12:05:23;;;;;;;;;;;;;;;13.78;50.91;97832.13;5063893;28;19928;-81
2024/03/18 12:07:51;;;;;;;;;;;;;;;13.77;50.93;97825.88;5069078;28;19956;-81
2024/03/18 12:10:19;;;;;;;;;;;;;;;13.88;51.31;97832.53;5062786;28;20302;-81
2024/03/18 12:12:46;;;;;;;;;;;;;;;13.88;51.06;97821.63;5077749;28;19930;-83
2024/03/18 12:15:13;;;;;;;;;;;;;;;13.91;51.14;97814.69;5062277;28;19931;-81
2024/03/18 12:17:40;;;;;;;;;;;;;;;13.96;50.48;97817.22;5063246;28;19956;-81
2024/03/18 12:20:08;;;;;;;;;;;;;;;13.94;50.66;97819.47;5063347;28;19974;-83
2024/03/18 12:22:35;;;;;;;;;;;;;;;13.98;50.61;97820.41;5041468;28;19928;-81
2024/03/18 12:30:31;;;;;;;;;;;;;;;13.91;50.78;97808.44;5059698;28;19928;-83
2024/03/18 12:32:58;;;;;;;;;;;;;;;13.96;50.87;97809.03;5052719;28;19959;-85
2024/03/18 12:35:28;;;;;;;;;;;;;;;14.03;50.19;97806.53;5070276;28;19927;-83
2024/03/18 12:37:55;;;;;;;;;;;;;;;14.04;50.02;97807.34;5040961;28;19931;-83
2024/03/18 12:40:22;;;;;;;;;;;;;;;13.91;49.96;97809.22;5047044;28;20249;-83
2024/03/18 12:42:50;;;;;;;;;;;;;;;13.83;50.02;97801.91;5050957;28;20022;-83
2024/03/18 12:45:17;;;;;;;;;;;;;;;13.91;50.37;97806.50;5068692;28;19929;-83
2024/03/18 12:47:44;;;;;;;;;;;;;;;13.91;50.11;97803.78;5048519;28;20280;-83
2024/03/18 12:50:15;;;;;;;;;;;;;;;13.87;50.27;97805.56;5057017;28;19957;-83
2024/03/18 12:52:44;;;;;;;;;;;;;;;13.93;50.60;97806.94;5063153;28;19968;-83
2024/03/18 12:55:11;;;;;;;;;;;;;;;13.89;50.55;97811.47;5063949;28;19935;-83
2024/03/18 12:57:40;;;;;;;;;;;;;;;13.83;50.60;97810.09;5071059;28;20015;-83
2024/03/18 13:00:10;;;;;;;;;;;;;;;13.87;50.68;97819.22;5049419;28;20019;-83
2024/03/18 13:02:38;;;;;;;;;;;;;;;13.99;51.07;97819.25;5090461;28;19924;-84